Time;durP1;ratioP1;P1;durP2;ratioP2;P2;SDS_P1;SDS_P2;PMS_P1;PMS_P2;Temp;Humidity;BMP_temperature;BMP_pressure;BME280_temperature;BME280_humidity;BME280_pressure;Samples;Min_cycle;Max_cycle;Signal;HPM_P1;HPM_P2
2022/07/30 00:02:17;;;;;;;1999.90;658.70;;;15.30;99.90;;;;;;4899567;29;20115;-81
2022/07/30 00:04:44;;;;;;;1999.90;925.97;;;15.30;99.90;;;;;;4916483;29;20059;-81
2022/07/30 00:07:10;;;;;;;1999.90;978.85;;;15.30;99.90;;;;;;4914506;29;20056;-81
2022/07/30 00:09:36;;;;;;;1999.90;968.53;;;15.30;99.90;;;;;;4916467;29;20054;-81
2022/07/30 00:12:01;;;;;;;1999.90;999.90;;;15.30;99.90;;;;;;4915908;29;20051;-81
2022/07/30 00:14:27;;;;;;;1999.90;999.90;;;15.30;99.90;;;;;;4899671;29;20052;-82
2022/07/30 00:16:53;;;;;;;1999.90;999.90;;;15.20;99.90;;;;;;4899291;29;20135;-81
2022/07/30 00:19:19;;;;;;;1999.90;911.05;;;15.20;99.90;;;;;;4916380;29;20096;-81
2022/07/30 00:21:45;;;;;;;1999.90;882.17;;;15.20;99.90;;;;;;4899352;29;20044;-85
2022/07/30 00:24:11;;;;;;;1949.95;859.75;;;15.10;99.90;;;;;;4899034;29;20111;-81
2022/07/30 00:26:37;;;;;;;1999.90;669.13;;;15.10;99.90;;;;;;4916044;29;20421;-81
2022/07/30 00:29:04;;;;;;;1983.45;578.22;;;15.00;99.90;;;;;;4899164;29;20107;-82
2022/07/30 00:31:30;;;;;;;1999.90;834.93;;;15.00;99.90;;;;;;4899603;29;20058;-81
2022/07/30 00:33:56;;;;;;;1999.90;895.53;;;15.00;99.90;;;;;;4915344;29;20318;-81
2022/07/30 00:36:21;;;;;;;1999.90;999.90;;;14.90;99.90;;;;;;4916146;29;20052;-81
2022/07/30 00:38:47;;;;;;;1999.90;999.90;;;14.90;99.90;;;;;;4915770;29;20059;-81
2022/07/30 00:41:13;;;;;;;1999.90;904.08;;;14.90;99.90;;;;;;4915846;29;20414;-81
2022/07/30 00:43:39;;;;;;;1999.90;994.45;;;14.90;99.90;;;;;;4899379;29;20474;-82
2022/07/30 00:46:05;;;;;;;1999.90;999.90;;;14.80;99.90;;;;;;4915863;29;20048;-82
2022/07/30 00:48:30;;;;;;;1999.90;969.88;;;14.80;99.90;;;;;;4915966;29;20044;-81
2022/07/30 00:50:56;;;;;;;1999.90;987.65;;;14.80;99.90;;;;;;4915816;29;20528;-81
2022/07/30 00:53:22;;;;;;;1999.90;881.55;;;14.80;99.90;;;;;;4915920;29;20371;-81
2022/07/30 00:55:47;;;;;;;1999.90;851.72;;;14.80;99.90;;;;;;4919335;29;20196;-81
2022/07/30 00:58:13;;;;;;;1999.90;999.90;;;14.70;99.90;;;;;;4919082;29;20048;-81
2022/07/30 01:00:39;;;;;;;1999.90;999.90;;;14.70;99.90;;;;;;4902851;29;20055;-81
2022/07/30 01:03:05;;;;;;;1999.90;999.90;;;14.70;99.90;;;;;;4919364;29;20398;-81
2022/07/30 01:05:31;;;;;;;1999.90;999.90;;;14.70;99.90;;;;;;4919416;29;20126;-83
2022/07/30 01:07:57;;;;;;;1999.90;999.90;;;14.70;99.90;;;;;;4918728;29;20438;-81
2022/07/30 01:10:23;;;;;;;1999.90;999.90;;;14.70;99.90;;;;;;4902537;29;20167;-82
2022/07/30 01:12:51;;;;;;;1999.90;999.90;;;14.60;99.90;;;;;;4902379;29;20050;-81
2022/07/30 01:15:18;;;;;;;1999.90;999.90;;;14.60;99.90;;;;;;4918939;29;20055;-81
2022/07/30 01:17:47;;;;;;;1999.90;999.90;;;14.60;99.90;;;;;;4902468;29;20098;-81
2022/07/30 01:20:22;;;;;;;1999.90;999.90;;;14.50;99.90;;;;;;4918851;29;20526;-82
2022/07/30 01:23:11;;;;;;;1999.90;999.90;;;14.70;99.90;;;;;;4902097;29;20052;-82
2022/07/30 01:25:47;;;;;;;1999.90;999.90;;;14.40;99.90;;;;;;4902449;29;20409;-81
2022/07/30 01:28:18;;;;;;;1999.90;999.90;;;14.40;99.90;;;;;;4901904;29;20067;-81
2022/07/30 01:30:44;;;;;;;1999.90;999.90;;;14.70;99.90;;;;;;4919076;29;20071;-81
2022/07/30 01:33:13;;;;;;;1999.90;999.90;;;14.40;99.90;;;;;;4901488;29;20462;-81
2022/07/30 01:35:40;;;;;;;1999.90;999.90;;;14.30;99.90;;;;;;4902273;29;20055;-81
2022/07/30 01:38:07;;;;;;;1999.90;999.90;;;14.30;99.90;;;;;;4901576;29;20052;-81
2022/07/30 01:40:35;;;;;;;1999.90;999.90;;;14.30;99.90;;;;;;4901957;29;20055;-80
2022/07/30 01:43:01;;;;;;;;;;;14.30;99.90;;;;;;4919001;29;20439;-81
2022/07/30 01:45:29;;;;;;;1999.90;999.90;;;14.20;1.00;;;;;;4902536;29;19986;-80
2022/07/30 01:47:57;;;;;;;1999.90;999.90;;;14.20;1.00;;;;;;4919354;29;20048;-80
2022/07/30 01:50:23;;;;;;;1999.90;999.90;;;14.20;1.00;;;;;;4919602;29;20056;-82
2022/07/30 01:52:52;;;;;;;1999.90;999.90;;;14.20;1.00;;;;;;4918672;29;20043;-81
2022/07/30 01:55:34;;;;;;;1999.90;999.90;;;14.10;1.00;;;;;;4918988;29;20051;-83
2022/07/30 01:58:00;;;;;;;1999.90;999.90;;;14.10;1.00;;;;;;4919633;29;20052;-91
2022/07/30 02:00:30;;;;;;;1999.90;999.90;;;14.10;1.00;;;;;;4886922;29;20472;-82
2022/07/30 02:02:57;;;;;;;1999.90;999.90;;;14.10;1.00;;;;;;4918544;29;20131;-81
2022/07/30 02:05:23;;;;;;;1999.90;999.90;;;13.40;1.00;;;;;;4917896;29;20040;-81
2022/07/30 02:07:59;;;;;;;1999.90;999.90;;;14.10;1.00;;;;;;4917977;29;20076;-81
2022/07/30 02:10:46;;;;;;;1999.90;999.90;;;14.00;1.00;;;;;;4918056;29;20056;-81
2022/07/30 02:13:19;;;;;;;1999.90;999.90;;;14.00;1.00;;;;;;4900882;29;20375;-82
2022/07/30 02:16:04;;;;;;;1999.90;999.90;;;14.00;1.00;;;;;;4918258;29;20059;-82
2022/07/30 02:18:37;;;;;;;1999.90;999.90;;;13.90;1.00;;;;;;4918052;29;20111;-81
2022/07/30 02:21:07;;;;;;;1999.90;999.90;;;13.90;1.00;;;;;;4917774;29;20127;-83
2022/07/30 02:23:40;;;;;;;1999.90;999.90;;;13.90;1.00;;;;;;4900917;29;20051;-81
2022/07/30 02:26:08;;;;;;;1999.90;999.90;;;13.90;1.00;;;;;;4917694;29;20048;-82
2022/07/30 02:28:39;;;;;;;1999.90;999.90;;;13.90;1.00;;;;;;4901093;29;20106;-82
2022/07/30 02:31:09;;;;;;;1999.90;999.90;;;13.90;1.00;;;;;;4917538;29;20059;-82
2022/07/30 02:33:39;;;;;;;1999.90;999.90;;;13.80;1.00;;;;;;4917588;29;20099;-84
2022/07/30 02:36:06;;;;;;;1999.90;999.90;;;13.80;1.00;;;;;;4917515;29;20063;-83
2022/07/30 02:38:34;;;;;;;;;;;13.80;1.00;;;;;;4900699;29;20048;-82
2022/07/30 02:41:01;;;;;;;1999.90;999.90;;;13.80;1.00;;;;;;4901124;29;20273;-83
2022/07/30 02:43:29;;;;;;;1999.90;999.90;;;14.00;1.00;;;;;;4900608;29;20094;-83
2022/07/30 02:45:55;;;;;;;1999.90;999.90;;;13.80;1.00;;;;;;4917681;29;20454;-82
2022/07/30 02:48:23;;;;;;;1999.90;999.90;;;13.70;1.00;;;;;;4884947;29;20052;-83
2022/07/30 02:50:51;;;;;;;1999.90;999.90;;;14.20;1.00;;;;;;4917284;29;20502;-82
2022/07/30 02:53:19;;;;;;;1999.90;999.90;;;13.70;1.00;;;;;;4916818;29;20087;-83
2022/07/30 02:55:47;;;;;;;1999.90;999.90;;;13.80;1.00;;;;;;4900552;29;20055;-81
2022/07/30 02:58:18;;;;;;;1999.90;999.90;;;13.70;1.00;;;;;;4916975;29;20104;-82
2022/07/30 03:00:45;;;;;;;1999.90;999.90;;;13.70;1.00;;;;;;4916222;29;20051;-82
2022/07/30 03:03:12;;;;;;;1999.90;999.90;;;13.70;1.00;;;;;;4916935;29;20040;-82
2022/07/30 03:05:39;;;;;;;1999.90;999.90;;;13.70;1.00;;;;;;4900578;29;20064;-83
2022/07/30 03:08:07;;;;;;;1999.90;999.90;;;13.70;1.00;;;;;;4884499;29;20052;-82
2022/07/30 03:10:35;;;;;;;1999.90;999.90;;;13.70;1.00;;;;;;4869207;29;20126;-83
2022/07/30 03:13:03;;;;;;;1999.90;999.90;;;13.70;1.00;;;;;;4916978;29;20052;-83
2022/07/30 03:15:31;;;;;;;1999.90;999.90;;;13.80;1.00;;;;;;4900229;29;20051;-83
2022/07/30 03:17:58;;;;;;;1999.90;999.90;;;13.70;1.00;;;;;;4916323;29;20446;-81
2022/07/30 03:20:28;;;;;;;1999.90;999.90;;;13.70;1.00;;;;;;4916727;29;20405;-83
2022/07/30 03:22:57;;;;;;;1996.53;999.90;;;13.70;1.00;;;;;;4916527;29;20051;-82
2022/07/30 03:25:27;;;;;;;1981.43;999.90;;;13.70;1.00;;;;;;4916638;29;20051;-82
2022/07/30 03:27:56;;;;;;;1999.90;999.90;;;13.70;1.00;;;;;;4900169;29;20052;-82
2022/07/30 03:30:24;;;;;;;1999.90;999.90;;;13.70;1.00;;;;;;4916569;29;20107;-81
2022/07/30 03:32:52;;;;;;;1999.90;999.90;;;13.70;1.00;;;;;;4916647;29;20415;-84
2022/07/30 03:35:20;;;;;;;1999.90;999.90;;;13.70;1.00;;;;;;4916594;29;20079;-82
2022/07/30 03:37:47;;;;;;;1935.90;999.90;;;13.70;1.00;;;;;;4916333;29;20052;-82
2022/07/30 03:40:14;;;;;;;1999.90;999.90;;;13.70;1.00;;;;;;4916350;29;20087;-83
2022/07/30 03:42:40;;;;;;;1945.72;999.90;;;13.70;1.00;;;;;;4899736;29;20052;-81
2022/07/30 03:45:08;;;;;;;1914.90;999.90;;;13.70;1.00;;;;;;4900027;29;20051;-81
2022/07/30 03:47:38;;;;;;;1893.07;999.90;;;13.70;1.00;;;;;;4899618;29;20115;-82
2022/07/30 03:50:04;;;;;;;1976.63;999.90;;;13.70;1.00;;;;;;4899933;29;20115;-82
2022/07/30 03:52:33;;;;;;;1999.90;999.90;;;13.70;1.00;;;;;;4915674;29;20107;-82
2022/07/30 03:55:01;;;;;;;1959.45;999.90;;;13.70;1.00;;;;;;4899703;29;20421;-82
2022/07/30 03:57:27;;;;;;;1926.10;999.90;;;13.70;1.00;;;;;;4899436;29;20048;-81
2022/07/30 03:59:53;;;;;;;1975.78;999.90;;;;;;;;;;4884407;29;20459;-82
2022/07/30 04:02:19;;;;;;;1931.22;999.90;;;13.60;1.00;;;;;;4899398;29;20044;-82
2022/07/30 04:04:44;;;;;;;1961.82;999.90;;;13.70;1.00;;;;;;4899558;29;20449;-82
2022/07/30 04:07:10;;;;;;;1960.00;999.90;;;13.70;1.00;;;;;;4868313;29;20107;-82
2022/07/30 04:09:36;;;;;;;1936.18;999.90;;;14.40;1.00;;;;;;4916171;29;20142;-82
2022/07/30 04:12:02;;;;;;;1915.25;999.90;;;13.70;1.00;;;;;;4899583;29;20070;-82
2022/07/30 04:14:43;;;;;;;1999.90;999.90;;;13.70;1.00;;;;;;4916125;29;20055;-81
2022/07/30 04:17:15;;;;;;;1905.68;999.90;;;13.70;1.00;;;;;;4916251;29;20062;-82
2022/07/30 04:19:46;;;;;;;1865.57;999.90;;;13.70;1.00;;;;;;4915988;29;20087;-82
2022/07/30 04:22:15;;;;;;;1998.75;999.90;;;14.10;1.00;;;;;;4899160;29;20087;-82
2022/07/30 04:24:42;;;;;;;1904.45;999.90;;;13.70;1.00;;;;;;4915066;29;20052;-82
2022/07/30 04:27:08;;;;;;;1933.03;999.90;;;14.10;7.10;;;;;;4899402;29;20481;-82
2022/07/30 04:29:34;;;;;;;1969.90;999.90;;;13.70;69.20;;;;;;4901239;29;20052;-83
2022/07/30 04:32:00;;;;;;;1909.55;999.90;;;15.20;99.90;;;;;;4887508;29;20044;-82
2022/07/30 04:34:26;;;;;;;1924.05;999.90;;;13.80;99.90;;;;;;4902204;29;20083;-84
2022/07/30 04:36:52;;;;;;;1976.70;999.90;;;13.80;99.90;;;;;;4902788;29;20091;-83
2022/07/30 04:39:18;;;;;;;1962.57;999.90;;;13.80;99.90;;;;;;4903194;29;20056;-82
2022/07/30 04:41:44;;;;;;;1960.50;999.90;;;13.80;99.80;;;;;;4919719;29;20135;-86
2022/07/30 04:44:09;;;;;;;1947.22;999.90;;;13.90;99.90;;;;;;4903146;29;20041;-82
2022/07/30 04:46:35;;;;;;;1965.15;999.90;;;14.50;99.90;;;;;;4902586;29;20130;-82
2022/07/30 04:49:01;;;;;;;1834.00;999.90;;;13.90;99.90;;;;;;4919629;29;20048;-82
2022/07/30 04:51:35;;;;;;;1939.63;999.90;;;13.90;99.90;;;;;;4902605;29;20044;-82
2022/07/30 04:54:02;;;;;;;1987.68;999.90;;;13.90;99.90;;;;;;4919157;29;20044;-82
2022/07/30 04:56:31;;;;;;;1979.40;999.90;;;14.10;99.90;;;;;;4902412;29;20055;-83
2022/07/30 04:58:57;;;;;;;1896.10;999.90;;;14.20;99.90;;;;;;4919481;29;20059;-83
2022/07/30 05:01:32;;;;;;;1999.90;999.90;;;14.10;99.90;;;;;;4886969;29;20131;-83
2022/07/30 05:03:59;;;;;;;1999.90;999.90;;;14.20;99.90;;;;;;4887186;29;20119;-83
2022/07/30 05:06:26;;;;;;;1956.78;999.90;;;14.20;99.90;;;;;;4886910;29;20056;-81
2022/07/30 05:08:52;;;;;;;1999.90;999.90;;;14.20;99.90;;;;;;4918978;29;20059;-82
2022/07/30 05:11:18;;;;;;;1998.43;999.90;;;14.30;99.90;;;;;;4919363;29;20040;-82
2022/07/30 05:13:44;;;;;;;1999.90;999.90;;;14.30;99.90;;;;;;4901981;29;20552;-82
2022/07/30 05:16:10;;;;;;;1999.90;999.90;;;14.40;99.90;;;;;;4919335;29;20043;-83
2022/07/30 05:18:36;;;;;;;1966.22;999.90;;;14.30;99.90;;;;;;4901926;29;20131;-83
2022/07/30 05:21:03;;;;;;;1988.57;999.90;;;14.30;99.90;;;;;;4919223;29;20052;-83
2022/07/30 05:23:29;;;;;;;1912.07;999.90;;;14.40;99.90;;;;;;4901590;29;20051;-82
2022/07/30 05:25:55;;;;;;;1991.45;999.90;;;14.50;99.90;;;;;;4902456;29;20504;-82
2022/07/30 05:28:21;;;;;;;1999.90;999.90;;;14.50;99.90;;;;;;4871195;29;20044;-82
2022/07/30 05:30:47;;;;;;;1861.22;999.90;;;14.50;99.90;;;;;;4886647;29;20138;-83
2022/07/30 05:33:13;;;;;;;1998.63;999.90;;;14.60;99.90;;;;;;4918373;29;20598;-83
2022/07/30 05:35:38;;;;;;;1975.93;999.90;;;14.60;99.90;;;;;;4901910;29;20059;-82
2022/07/30 05:38:04;;;;;;;1747.00;999.90;;;14.60;99.90;;;;;;4886095;29;20127;-82
2022/07/30 05:40:30;;;;;;;1564.40;999.90;;;14.60;99.90;;;;;;4901178;29;20044;-82
2022/07/30 05:42:55;;;;;;;1231.20;999.90;;;14.70;99.90;;;;;;4901944;29;20502;-82
2022/07/30 05:45:21;;;;;;;1089.63;971.17;;;14.70;99.90;;;;;;4919120;29;20048;-82
2022/07/30 05:47:47;;;;;;;1128.28;999.83;;;14.80;99.90;;;;;;4885848;29;20044;-82
2022/07/30 05:50:13;;;;;;;1183.38;999.60;;;14.80;99.90;;;;;;4901811;29;20044;-82
2022/07/30 05:52:38;;;;;;;1195.57;999.90;;;14.80;99.90;;;;;;4917540;29;20075;-82
2022/07/30 05:55:04;;;;;;;1210.53;999.90;;;14.90;99.90;;;;;;4901884;29;20037;-83
2022/07/30 05:57:30;;;;;;;1207.38;979.92;;;14.90;99.90;;;;;;4901355;29;20123;-82
2022/07/30 05:59:56;;;;;;;1173.00;988.55;;;15.00;99.90;;;;;;4901630;29;20048;-83
2022/07/30 06:02:21;;;;;;;1087.65;969.58;;;15.10;99.90;;;;;;4917244;29;20394;-82
2022/07/30 06:04:47;;;;;;;1067.82;952.83;;;15.20;99.90;;;;;;4885799;29;20048;-82
2022/07/30 06:07:13;;;;;;;1111.03;972.58;;;15.20;99.90;;;;;;4917640;29;20054;-82
2022/07/30 06:09:39;;;;;;;1154.32;989.45;;;15.20;99.90;;;;;;4885728;29;20055;-82
2022/07/30 06:12:04;;;;;;;1076.18;957.75;;;15.30;99.90;;;;;;4918098;29;20044;-82
2022/07/30 06:14:31;;;;;;;1113.10;968.85;;;15.30;99.90;;;;;;4917119;29;20044;-82
2022/07/30 06:16:56;;;;;;;1093.05;974.13;;;15.70;99.90;;;;;;4901395;29;20473;-82
2022/07/30 06:19:22;;;;;;;1071.30;954.20;;;15.40;99.90;;;;;;4918200;29;20087;-83
2022/07/30 06:21:48;;;;;;;1074.78;957.90;;;15.50;99.90;;;;;;4917457;29;20071;-84
2022/07/30 06:24:13;;;;;;;1056.22;944.42;;;15.50;99.90;;;;;;4901231;29;20080;-82
2022/07/30 06:26:39;;;;;;;1101.07;975.78;;;15.60;99.90;;;;;;4885294;29;20095;-83
2022/07/30 06:29:05;;;;;;;1194.63;999.90;;;15.80;99.90;;;;;;4916435;29;20118;-82
2022/07/30 06:31:31;;;;;;;1213.30;999.90;;;16.10;99.90;;;;;;4885563;29;20051;-82
2022/07/30 06:33:57;;;;;;;1190.05;997.00;;;16.40;99.90;;;;;;4917319;29;20104;-82
2022/07/30 06:36:22;;;;;;;1116.97;984.47;;;16.70;99.90;;;;;;4917884;29;20048;-83
2022/07/30 06:38:48;;;;;;;1329.57;999.90;;;16.90;99.90;;;;;;4917092;29;20532;-83
2022/07/30 06:41:14;;;;;;;1070.38;959.35;;;17.10;99.90;;;;;;4916284;29;20057;-83
2022/07/30 06:43:40;;;;;;;1048.70;939.30;;;17.30;99.90;;;;;;4900572;29;20110;-82
2022/07/30 06:46:06;;;;;;;990.60;892.40;;;17.50;99.90;;;;;;4885035;29;20059;-82
2022/07/30 06:48:32;;;;;;;995.33;896.40;;;17.80;99.90;;;;;;4900802;29;20047;-84
2022/07/30 06:50:58;;;;;;;999.08;899.85;;;18.00;81.90;;;;;;4899615;29;20048;-83
2022/07/30 06:53:24;;;;;;;1011.88;904.72;;;18.30;48.30;;;;;;4916538;29;20486;-82
2022/07/30 06:55:49;;;;;;;1224.97;979.35;;;18.60;4.40;;;;;;4884720;29;20040;-83
2022/07/30 06:58:15;;;;;;;1010.72;902.35;;;18.80;1.00;;;;;;4900597;29;20048;-83
2022/07/30 07:00:43;;;;;;;1289.70;964.15;;;19.00;1.00;;;;;;4884687;29;20052;-83
2022/07/30 07:03:09;;;;;;;;;;;19.20;1.00;;;;;;4900969;29;20048;-82
2022/07/30 07:05:35;;;;;;;1999.90;999.90;;;19.40;1.00;;;;;;4884844;29;19992;-82
2022/07/30 07:08:01;;;;;;;1468.72;999.90;;;19.40;1.00;;;;;;4899751;29;20052;-84
2022/07/30 07:10:26;;;;;;;1374.38;992.65;;;19.50;1.00;;;;;;4917292;29;20107;-83
2022/07/30 07:12:53;;;;;;;1999.90;999.90;;;20.10;1.00;;;;;;4884281;29;20080;-85
2022/07/30 07:15:19;;;;;;;1999.90;999.90;;;21.20;1.00;;;;;;4900255;29;20048;-84
2022/07/30 07:17:45;;;;;;;1990.28;999.90;;;22.50;99.90;;;;;;4884573;29;20100;-83
2022/07/30 07:20:11;;;;;;;1744.88;999.90;;;23.70;99.90;;;;;;4900211;29;20052;-83
2022/07/30 07:22:37;;;;;;;1922.55;999.90;;;24.80;99.90;;;;;;4899303;29;20048;-83
2022/07/30 07:25:03;;;;;;;1730.35;999.90;;;25.40;99.90;;;;;;4916717;29;20055;-84
2022/07/30 07:27:30;;;;;;;1999.90;999.90;;;26.10;99.90;;;;;;4900146;29;20071;-84
2022/07/30 07:29:56;;;;;;;1999.90;999.90;;;26.40;99.90;;;;;;4869194;29;20095;-84
2022/07/30 07:32:22;;;;;;;1593.40;818.75;;;26.50;99.90;;;;;;4899513;29;20099;-82
2022/07/30 07:34:47;;;;;;;1999.90;999.90;;;26.70;99.90;;;;;;4899230;29;20115;-83
2022/07/30 07:37:14;;;;;;;1222.32;974.20;;;26.10;99.90;;;;;;4899759;29;20088;-83
2022/07/30 07:39:43;;;;;;;1129.47;999.90;;;26.00;99.90;;;;;;4916835;29;20090;-84
2022/07/30 07:42:08;;;;;;;1098.53;985.63;;;26.50;99.90;;;;;;4916388;29;20501;-82
2022/07/30 07:44:34;;;;;;;957.65;871.90;;;27.10;99.90;;;;;;4899992;29;20055;-85
2022/07/30 07:47:00;;;;;;;1048.65;939.67;;;27.30;99.90;;;;;;4899297;29;20044;-84
2022/07/30 07:49:26;;;;;;;1268.55;993.92;;;28.00;99.90;;;;;;4899941;29;20048;-84
2022/07/30 07:51:51;;;;;;;908.88;827.00;;;28.20;99.90;;;;;;4915977;29;20134;-83
2022/07/30 07:54:17;;;;;;;791.40;729.85;;;27.70;99.80;;;;;;4899676;29;20074;-83
2022/07/30 07:56:43;;;;;;;1245.75;999.90;;;27.00;96.10;;;;;;4899604;29;20206;-86
2022/07/30 07:59:08;;;;;;;857.45;784.22;;;26.50;86.90;;;;;;4916933;29;20133;-82
2022/07/30 08:01:34;;;;;;;727.63;668.35;;;26.90;99.10;;;;;;4899798;29;20130;-82
2022/07/30 08:04:00;;;;;;;829.67;760.53;;;27.80;94.80;;;;;;4883739;29;20071;-83
2022/07/30 08:06:26;;;;;;;791.95;734.60;;;28.10;91.80;;;;;;4916585;29;20059;-89
2022/07/30 08:08:52;;;;;;;823.95;759.00;;;27.50;76.80;;;;;;4867644;29;20051;-85
2022/07/30 08:11:18;;;;;;;773.15;716.60;;;27.80;76.40;;;;;;4899570;29;20490;-83
2022/07/30 08:13:44;;;;;;;927.28;855.33;;;28.70;64.50;;;;;;4914885;29;20048;-92
2022/07/30 08:16:10;;;;;;;902.08;834.42;;;29.30;53.90;;;;;;4916430;29;20040;-82
2022/07/30 08:18:36;;;;;;;940.63;847.25;;;30.20;40.30;;;;;;4884212;29;20489;-81
2022/07/30 08:21:03;;;;;;;858.20;779.58;;;30.70;4.10;;;;;;4899374;29;20060;-83
2022/07/30 08:23:29;;;;;;;994.85;893.70;;;30.50;3.10;;;;;;4915929;29;20044;-84
2022/07/30 08:25:59;;;;;;;1023.05;918.28;;;31.00;5.50;;;;;;4899173;29;20059;-83
2022/07/30 08:28:25;;;;;;;979.88;886.13;;;30.70;1.00;;;;;;4899577;29;20087;-83
2022/07/30 08:30:50;;;;;;;1005.92;909.88;;;30.20;7.50;;;;;;4898986;29;20086;-83
2022/07/30 08:33:16;;;;;;;1019.53;924.75;;;30.40;5.50;;;;;;4915933;29;20374;-83
2022/07/30 08:35:42;;;;;;;926.63;856.25;;;30.60;1.00;;;;;;4868730;29;20071;-83
2022/07/30 08:38:08;;;;;;;947.10;867.88;;;30.40;1.00;;;;;;4915417;29;20059;-83
2022/07/30 08:40:34;;;;;;;756.17;696.13;;;30.50;1.00;;;;;;4916145;29;20048;-83
2022/07/30 08:43:03;;;;;;;879.65;805.72;;;31.30;1.00;;;;;;4899132;29;20060;-84
2022/07/30 08:45:30;;;;;;;866.15;794.47;;;31.00;1.00;;;;;;4916063;29;20059;-82
2022/07/30 08:47:56;;;;;;;869.00;794.50;;;30.70;1.00;;;;;;4899065;29;20516;-84
2022/07/30 08:50:23;;;;;;;711.85;652.95;;;30.80;1.00;;;;;;4883736;29;20055;-82
2022/07/30 08:52:49;;;;;;;776.10;710.43;;;30.90;1.00;;;;;;4898514;29;20048;-83
2022/07/30 08:55:15;;;;;;;772.30;708.53;;;31.90;1.00;;;;;;4899421;29;20448;-82
2022/07/30 08:57:42;;;;;;;904.63;821.58;;;32.50;1.00;;;;;;4914866;29;20048;-82
2022/07/30 09:00:08;;;;;;;887.08;777.35;;;32.80;1.00;;;;;;4883654;29;20087;-83
2022/07/30 09:02:34;;;;;;;1302.00;869.23;;;33.30;1.00;;;;;;4916054;29;20052;-83
2022/07/30 09:05:00;;;;;;;1178.03;946.53;;;34.20;1.00;;;;;;4914660;29;20055;-82
2022/07/30 09:07:26;;;;;;;934.22;834.60;;;34.70;1.00;;;;;;4899186;29;20044;-82
2022/07/30 09:09:51;;;;;;;825.67;744.22;;;35.50;1.00;;;;;;4916111;29;20055;-82
2022/07/30 09:12:40;;;;;;;739.70;655.72;;;35.70;1.00;;;;;;4883721;29;20544;-82
2022/07/30 09:15:08;;;;;;;926.58;820.75;;;35.60;1.00;;;;;;4900590;29;20052;-83
2022/07/30 09:17:52;;;;;;;;;;;36.00;1.00;;;;;;4903311;29;20056;-83
2022/07/30 09:20:30;;;;;;;960.33;788.42;;;36.20;1.00;;;;;;4902922;29;19937;-83
2022/07/30 09:22:58;;;;;;;1999.90;999.90;;;36.80;1.00;;;;;;4918998;29;20103;-83
2022/07/30 09:25:39;;;;;;;1999.90;999.90;;;36.20;1.00;;;;;;4902797;29;20040;-83
2022/07/30 09:28:08;;;;;;;1999.90;999.90;;;35.60;1.00;;;;;;4919260;29;20094;-83
2022/07/30 09:30:49;;;;;;;1738.97;964.53;;;35.60;1.00;;;;;;4902774;29;20056;-82
2022/07/30 09:33:30;;;;;;;953.70;665.85;;;36.10;1.00;;;;;;4902043;29;20143;-83
2022/07/30 09:35:56;;;;;;;1706.97;938.25;;;36.80;1.00;;;;;;4902362;29;20055;-83
2022/07/30 09:38:22;;;;;;;1999.90;999.90;;;37.10;1.00;;;;;;4902163;29;20044;-83
2022/07/30 09:40:52;;;;;;;826.90;751.85;;;37.20;1.00;;;;;;4918983;29;20375;-83
2022/07/30 09:43:18;;;;;;;1475.20;929.42;;;37.40;1.00;;;;;;4902036;29;20054;-82
2022/07/30 09:45:53;;;;;;;867.85;792.25;;;37.70;1.00;;;;;;4917639;29;20044;-83
2022/07/30 09:48:23;;;;;;;901.40;818.33;;;37.80;1.00;;;;;;4886788;29;20048;-82
2022/07/30 09:50:51;;;;;;;889.38;805.10;;;37.40;1.00;;;;;;4902153;29;20052;-82
2022/07/30 09:53:17;;;;;;;885.33;804.22;;;37.80;1.00;;;;;;4885979;29;20090;-83
2022/07/30 09:55:45;;;;;;;891.50;807.60;;;38.10;1.00;;;;;;4901823;29;20083;-83
2022/07/30 09:58:11;;;;;;;901.20;817.58;;;38.10;1.00;;;;;;4918194;29;20048;-83
2022/07/30 10:00:42;;;;;;;900.17;818.72;;;38.00;1.00;;;;;;4871275;29;20087;-82
2022/07/30 10:03:18;;;;;;;858.88;782.55;;;38.00;1.00;;;;;;4885880;29;20048;-83
2022/07/30 10:05:55;;;;;;;811.53;741.67;;;38.00;1.00;;;;;;4901799;29;20087;-83
2022/07/30 10:08:41;;;;;;;818.25;749.30;;;38.20;1.00;;;;;;4885781;29;20052;-83
2022/07/30 10:11:11;;;;;;;791.95;724.95;;;38.60;1.00;;;;;;4916906;29;20123;-82
2022/07/30 10:13:38;;;;;;;875.47;796.00;;;38.70;1.00;;;;;;4918189;29;20127;-83
2022/07/30 10:16:04;;;;;;;849.27;776.80;;;38.90;1.00;;;;;;4917981;29;20052;-82
2022/07/30 10:18:31;;;;;;;;;;;39.10;1.00;;;;;;4918585;29;20103;-83
2022/07/30 10:20:59;;;;;;;780.72;717.80;;;39.20;1.00;;;;;;4901043;29;20014;-82
2022/07/30 10:23:28;;;;;;;824.70;762.10;;;38.80;1.00;;;;;;4917738;29;20052;-82
2022/07/30 10:25:58;;;;;;;764.25;709.40;;;39.10;1.00;;;;;;4917968;29;20048;-81
2022/07/30 10:28:25;;;;;;;765.35;708.58;;;37.80;99.90;;;;;;4916987;29;20059;-82
2022/07/30 10:30:51;;;;;;;;;;;37.70;99.90;;;;;;4918418;29;20415;-82
2022/07/30 10:33:18;;;;;;;746.92;681.33;;;36.80;99.90;;;;;;4917349;29;19923;-82
2022/07/30 10:35:44;;;;;;;;;;;36.80;99.90;;;;;;4885780;29;20099;-81
2022/07/30 10:38:13;;;;;;;746.88;687.65;;;37.50;99.90;;;;;;4900446;29;20017;-82
2022/07/30 10:40:57;;;;;;;678.92;628.50;;;38.10;99.90;;;;;;4885307;29;20044;-81
2022/07/30 10:44:08;;;;;;;827.00;750.63;;;38.20;99.90;;;;;;4901359;29;20146;-83
2022/07/30 10:46:50;;;;;;;884.50;806.58;;;37.10;99.90;;;;;;4917745;29;20048;-82
2022/07/30 10:49:17;;;;;;;784.85;716.97;;;37.20;99.90;;;;;;4917420;29;20052;-82
2022/07/30 10:51:43;;;;;;;915.50;829.70;;;36.80;99.90;;;;;;4916421;29;20051;-86
2022/07/30 10:54:43;;;;;;;864.33;785.92;;;36.30;99.90;;;;;;4916942;29;20048;-83
2022/07/30 10:57:10;;;;;;;768.83;711.10;;;37.60;99.90;;;;;;4900256;29;20044;-82
2022/07/30 11:00:02;;;;;;;678.28;626.10;;;38.50;99.90;;;;;;4917486;29;20091;-82
2022/07/30 11:02:30;;;;;;;686.25;633.42;;;38.40;99.90;;;;;;4913284;29;20074;-81
2022/07/30 11:05:19;;;;;;;742.33;677.53;;;38.10;99.90;;;;;;4900438;29;20048;-82
2022/07/30 11:07:47;;;;;;;913.45;822.33;;;37.20;99.90;;;;;;4906809;29;20082;-81
2022/07/30 11:10:38;;;;;;;834.38;757.08;;;36.20;99.90;;;;;;4884600;29;20052;-81
2022/07/30 11:13:06;;;;;;;894.78;805.25;;;36.10;99.90;;;;;;4899999;29;20040;-82
2022/07/30 11:15:56;;;;;;;972.00;877.17;;;36.00;99.90;;;;;;4915972;29;20455;-82
2022/07/30 11:18:26;;;;;;;986.20;889.45;;;35.40;99.90;;;;;;4890724;29;20056;-82
2022/07/30 11:21:19;;;;;;;946.47;852.60;;;35.60;99.90;;;;;;4917240;29;20070;-82
2022/07/30 11:23:45;;;;;;;751.95;684.10;;;36.50;99.90;;;;;;4876475;29;20114;-83
2022/07/30 11:26:37;;;;;;;798.40;723.35;;;36.20;99.90;;;;;;4884392;29;20127;-83
2022/07/30 11:29:03;;;;;;;838.20;762.58;;;36.20;99.90;;;;;;4899660;29;20145;-91
2022/07/30 11:31:30;;;;;;;782.22;723.00;;;37.10;99.90;;;;;;4900138;29;20595;-84
2022/07/30 11:34:18;;;;;;;839.75;772.55;;;37.80;99.90;;;;;;4915191;29;20067;-82
2022/07/30 11:37:03;;;;;;;711.40;657.42;;;37.80;99.90;;;;;;4916662;29;20107;-86
2022/07/30 11:39:53;;;;;;;851.95;784.17;;;37.80;99.90;;;;;;4899847;29;20140;-82
2022/07/30 11:42:39;;;;;;;719.25;661.88;;;38.30;99.90;;;;;;4899386;29;20507;-82
2022/07/30 11:45:14;;;;;;;764.47;693.78;;;37.70;99.90;;;;;;4916479;29;20059;-87
2022/07/30 11:47:54;;;;;;;737.15;679.75;;;37.10;99.90;;;;;;4899898;29;20156;-82
2022/07/30 11:50:25;;;;;;;579.63;534.28;;;37.50;99.90;;;;;;4899747;29;20048;-82
2022/07/30 11:52:51;;;;;;;653.45;598.20;;;37.90;99.90;;;;;;4915086;29;20048;-81
2022/07/30 11:55:31;;;;;;;943.42;846.67;;;38.00;99.90;;;;;;4916305;29;20044;-82
2022/07/30 11:57:59;;;;;;;699.08;641.75;;;37.30;99.90;;;;;;4883939;29;20146;-81
2022/07/30 12:00:32;;;;;;;880.63;793.72;;;36.80;99.90;;;;;;4899613;29;20064;-82
2022/07/30 12:02:58;;;;;;;846.03;765.00;;;37.10;99.90;;;;;;4899773;29;20371;-81
2022/07/30 12:05:26;;;;;;;745.40;686.43;;;36.80;99.90;;;;;;4899496;29;20059;-81
2022/07/30 12:07:58;;;;;;;784.15;718.90;;;36.00;99.90;;;;;;4899386;29;20058;-82
2022/07/30 12:10:24;;;;;;;685.83;626.30;;;36.60;99.90;;;;;;4899450;29;20060;-81
2022/07/30 12:12:50;;;;;;;555.23;512.20;;;36.20;99.90;;;;;;4916320;29;20136;-83
2022/07/30 12:15:34;;;;;;;591.40;545.55;;;36.60;99.90;;;;;;4868120;29;20131;-81
2022/07/30 12:18:02;;;;;;;777.40;712.28;;;37.00;99.90;;;;;;4916340;29;20048;-81